Time;durP1;ratioP1;P1;durP2;ratioP2;P2;SDS_P1;SDS_P2;PMS_P1;PMS_P2;Temp;Humidity;BMP_temperature;BMP_pressure;BME280_temperature;BME280_humidity;BME280_pressure;Samples;Min_cycle;Max_cycle;Signal;HPM_P1;HPM_P2
2023/04/08 00:01:52;;;;;;;17.13;9.25;;;;;;;4.09;100.00;92354.91;5129211;27;20058;-76
2023/04/08 00:04:18;;;;;;;13.35;8.43;;;;;;;4.10;99.00;92368.66;5151051;27;20046;-76
2023/04/08 00:06:43;;;;;;;15.63;9.13;;;;;;;4.05;98.94;92366.03;5155461;27;20030;-76
2023/04/08 00:09:09;;;;;;;15.95;9.05;;;;;;;3.97;99.17;92365.47;5150359;27;20117;-76
2023/04/08 00:11:34;;;;;;;13.68;8.18;;;;;;;3.88;98.75;92361.78;5144183;27;20157;-76
2023/04/08 00:14:02;;;;;;;14.00;8.40;;;;;;;3.85;97.94;92357.09;5140709;27;20047;-76
2023/04/08 00:16:27;;;;;;;13.27;8.13;;;;;;;3.82;98.31;92362.75;5139805;27;20019;-75
2023/04/08 00:18:53;;;;;;;15.23;8.95;;;;;;;3.77;97.95;92362.72;5155584;27;20030;-76
2023/04/08 00:21:20;;;;;;;16.83;10.70;;;;;;;3.91;100.00;92361.25;5136924;27;20027;-75
2023/04/08 00:23:46;;;;;;;18.02;10.57;;;;;;;3.94;100.00;92365.16;5146283;27;20091;-76
2023/04/08 00:26:12;;;;;;;14.73;9.25;;;;;;;3.84;99.93;92367.69;5143402;27;20152;-76
2023/04/08 00:28:39;;;;;;;16.05;8.70;;;;;;;3.75;98.91;92372.53;5130171;27;20039;-76
2023/04/08 00:31:05;;;;;;;15.20;9.00;;;;;;;3.69;98.90;92370.94;5115933;27;20055;-75
2023/04/08 00:33:31;;;;;;;14.35;9.40;;;;;;;3.63;99.05;92359.75;5116445;27;20138;-76
2023/04/08 00:35:56;;;;;;;14.27;9.25;;;;;;;3.61;100.00;92361.81;5141823;27;20099;-76
2023/04/08 00:38:22;;;;;;;13.77;9.15;;;;;;;3.57;100.00;92367.72;5131473;27;20066;-76
2023/04/08 00:40:48;;;;;;;17.35;10.07;;;;;;;3.51;100.00;92361.72;5152353;27;20029;-76
2023/04/08 00:43:15;;;;;;;15.52;10.05;;;;;;;3.48;100.00;92357.03;5119457;27;20043;-77
2023/04/08 00:45:41;;;;;;;15.98;10.43;;;;;;;3.39;100.00;92354.09;5155317;27;20027;-77
2023/04/08 00:48:06;;;;;;;18.05;11.05;;;;;;;3.38;100.00;92354.34;5116496;27;20039;-75
2023/04/08 00:50:32;;;;;;;20.23;12.75;;;;;;;3.37;100.00;92356.16;5164513;27;20076;-76
2023/04/08 00:52:58;;;;;;;23.98;13.18;;;;;;;3.34;100.00;92351.47;5154227;27;20043;-75
2023/04/08 00:55:23;;;;;;;24.05;14.10;;;;;;;3.31;100.00;92354.53;5150563;27;20041;-76
2023/04/08 00:57:49;;;;;;;21.92;13.68;;;;;;;3.24;100.00;92352.16;5129485;27;20087;-75
2023/04/08 01:00:15;;;;;;;21.10;13.77;;;;;;;3.20;100.00;92353.69;5145441;27;20027;-75
2023/04/08 01:02:55;;;;;;;23.17;13.68;;;;;;;3.16;100.00;92349.25;5154134;27;20038;-75
2023/04/08 01:05:42;;;;;;;22.52;13.73;;;;;;;3.11;100.00;92358.50;5151002;27;20098;-77
2023/04/08 01:08:10;;;;;;;19.83;11.85;;;;;;;3.07;100.00;92361.81;5115805;27;20032;-77
2023/04/08 01:10:41;;;;;;;17.92;10.98;;;;;;;3.03;100.00;92358.91;5131803;27;20502;-75
2023/04/08 01:13:11;;;;;;;17.05;10.50;;;;;;;2.99;100.00;92364.81;5131965;27;20097;-75
2023/04/08 01:15:40;;;;;;;11.75;7.40;;;;;;;2.97;100.00;92365.06;5135982;27;20030;-75
2023/04/08 01:18:12;;;;;;;12.77;7.18;;;;;;;2.89;100.00;92360.31;5135836;27;20019;-76
2023/04/08 01:20:40;;;;;;;11.63;6.40;;;;;;;2.84;100.00;92357.69;5138692;27;20083;-76
2023/04/08 01:23:22;;;;;;;12.77;7.47;;;;;;;2.80;100.00;92359.19;5133112;27;20046;-76
2023/04/08 01:25:52;;;;;;;13.05;7.45;;;;;;;2.76;100.00;92356.28;5114936;27;20498;-76
2023/04/08 01:28:20;;;;;;;13.90;9.13;;;;;;;2.73;100.00;92351.63;5138948;27;20430;-76
2023/04/08 01:30:48;;;;;;;15.70;9.85;;;;;;;2.74;100.00;92352.41;5136280;27;20138;-76
2023/04/08 01:33:16;;;;;;;20.02;12.38;;;;;;;2.73;100.00;92348.25;5153982;27;20396;-76
2023/04/08 01:35:43;;;;;;;19.75;12.25;;;;;;;2.75;100.00;92351.34;5147256;27;20115;-76
2023/04/08 01:38:13;;;;;;;20.05;12.77;;;;;;;2.75;100.00;92348.78;5111051;27;20038;-76
2023/04/08 01:40:40;;;;;;;16.17;11.02;;;;;;;2.77;100.00;92342.38;5122313;27;20540;-76
2023/04/08 01:43:08;;;;;;;19.60;12.40;;;;;;;2.84;100.00;92348.13;5120542;27;20710;-76
2023/04/08 01:45:34;;;;;;;20.63;13.23;;;;;;;2.87;100.00;92357.19;5111810;27;20220;-76
2023/04/08 01:48:01;;;;;;;16.95;10.52;;;;;;;2.84;100.00;92352.53;5131195;27;20121;-76
2023/04/08 01:50:28;;;;;;;24.45;12.48;;;;;;;2.87;100.00;92349.44;5132026;27;20130;-76
2023/04/08 01:52:56;;;;;;;16.42;7.88;;;;;;;2.82;100.00;92351.97;5125235;27;20050;-76
2023/04/08 01:55:23;;;;;;;11.75;7.40;;;;;;;2.72;100.00;92350.03;5151392;27;20038;-76
2023/04/08 01:57:51;;;;;;;10.75;6.35;;;;;;;2.67;100.00;92353.34;5135434;27;20109;-75
2023/04/08 02:00:24;;;;;;;12.13;7.38;;;;;;;2.63;100.00;92349.69;5131252;27;20118;-76
2023/04/08 02:02:51;;;;;;;15.07;9.27;;;;;;;2.65;100.00;92347.63;5140127;27;20023;-76
2023/04/08 02:05:18;;;;;;;14.60;8.13;;;;;;;2.63;100.00;92357.44;5120800;27;20090;-76
2023/04/08 02:07:45;;;;;;;10.88;6.13;;;;;;;2.62;100.00;92352.53;5128343;27;20043;-76
2023/04/08 02:10:11;;;;;;;9.55;4.70;;;;;;;2.55;98.47;92349.34;5123014;27;20442;-76
2023/04/08 02:12:38;;;;;;;8.50;5.30;;;;;;;2.52;97.20;92345.41;5123338;27;20038;-76
2023/04/08 02:15:11;;;;;;;13.27;5.78;;;;;;;2.47;97.66;92350.50;5117828;27;20542;-76
2023/04/08 02:17:45;;;;;;;10.95;6.82;;;;;;;2.43;98.77;92346.84;5153062;27;20027;-76
2023/04/08 02:20:22;;;;;;;14.52;7.05;;;;;;;2.39;100.00;92343.97;5153120;27;20086;-76
2023/04/08 02:23:13;;;;;;;12.85;7.50;;;;;;;2.45;100.00;92344.81;5144573;27;20042;-75
2023/04/08 02:25:43;;;;;;;16.20;9.07;;;;;;;2.50;100.00;92353.41;5134800;27;20035;-76
2023/04/08 02:28:10;;;;;;;14.73;7.95;;;;;;;2.49;100.00;92351.84;5153281;27;20395;-76
2023/04/08 02:30:47;;;;;;;20.08;9.25;;;;;;;2.43;100.00;92355.41;5129982;27;20034;-76
2023/04/08 02:33:14;;;;;;;17.92;9.23;;;;;;;2.39;100.00;92351.72;5102555;27;20031;-76
2023/04/08 02:35:40;;;;;;;12.48;8.40;;;;;;;2.38;100.00;92355.31;5138660;27;20388;-76
2023/04/08 02:38:08;;;;;;;17.38;8.68;;;;;;;2.30;100.00;92350.56;5131085;27;20532;-75
2023/04/08 02:40:34;;;;;;;13.35;8.35;;;;;;;2.28;100.00;92350.81;5100530;27;20034;-76
2023/04/08 02:43:02;;;;;;;14.50;8.13;;;;;;;2.27;100.00;92354.41;5120515;27;20531;-75
2023/04/08 02:45:36;;;;;;;13.15;7.15;;;;;;;2.23;100.00;92358.50;5124753;27;20120;-76
2023/04/08 02:48:02;;;;;;;13.70;7.35;;;;;;;2.23;100.00;92362.84;5128477;27;20114;-78
2023/04/08 02:50:28;;;;;;;14.25;7.05;;;;;;;2.21;100.00;92359.75;5140582;27;20186;-76
2023/04/08 02:52:54;;;;;;;12.90;7.57;;;;;;;2.20;100.00;92360.75;5119879;27;20043;-76
2023/04/08 02:55:20;;;;;;;13.65;8.30;;;;;;;2.22;100.00;92356.91;5107154;27;20046;-76
2023/04/08 02:57:47;;;;;;;13.85;7.72;;;;;;;2.19;100.00;92356.63;5131757;27;20038;-76
2023/04/08 03:00:13;;;;;;;12.57;7.93;;;;;;;2.14;100.00;92359.91;5130718;27;20156;-76
2023/04/08 03:02:38;;;;;;;18.05;10.63;;;;;;;2.10;100.00;92348.50;5152543;27;20716;-76
2023/04/08 03:05:05;;;;;;;18.25;11.10;;;;;;;2.18;100.00;92360.97;5144553;27;20026;-76
2023/04/08 03:07:31;;;;;;;22.48;11.82;;;;;;;2.16;100.00;92355.31;5132206;27;20049;-76
2023/04/08 03:09:57;;;;;;;15.45;9.85;;;;;;;2.17;100.00;92363.81;5137961;27;20400;-76
2023/04/08 03:12:22;;;;;;;14.68;8.65;;;;;;;2.13;100.00;92365.31;5139628;27;20038;-76
2023/04/08 03:14:49;;;;;;;20.33;12.23;;;;;;;2.11;100.00;92369.94;5152610;27;20030;-76
2023/04/08 03:17:15;;;;;;;23.23;11.00;;;;;;;2.11;100.00;92370.69;5152548;27;20065;-76
2023/04/08 03:19:41;;;;;;;19.40;10.45;;;;;;;2.09;100.00;92367.56;5151995;27;20026;-76
2023/04/08 03:22:08;;;;;;;19.67;9.93;;;;;;;2.06;100.00;92368.06;5111667;27;20031;-75
2023/04/08 03:24:34;;;;;;;12.90;8.13;;;;;;;2.01;100.00;92368.75;5132936;27;20106;-75
2023/04/08 03:27:00;;;;;;;12.52;7.20;;;;;;;1.96;100.00;92362.72;5134124;27;20138;-76
2023/04/08 03:29:26;;;;;;;10.75;6.07;;;;;;;1.95;100.00;92371.50;5111415;28;20652;-76
2023/04/08 03:31:51;;;;;;;10.73;5.38;;;;;;;1.91;100.00;92365.25;5136723;27;20117;-76
2023/04/08 03:34:17;;;;;;;27.85;7.68;;;;;;;1.93;100.00;92374.31;5142697;27;20014;-76
2023/04/08 03:36:43;;;;;;;12.85;5.45;;;;;;;1.97;100.00;92377.22;5132794;27;20042;-76
2023/04/08 03:39:09;;;;;;;11.63;6.50;;;;;;;1.95;100.00;92387.78;5145277;27;20539;-76
2023/04/08 03:41:35;;;;;;;7.95;4.90;;;;;;;1.91;100.00;92381.50;5131994;27;20042;-76
2023/04/08 03:44:01;;;;;;;7.78;4.38;;;;;;;1.87;100.00;92376.06;5127218;27;20384;-76
2023/04/08 03:46:26;;;;;;;8.75;4.25;;;;;;;1.80;99.47;92384.94;5134538;27;20089;-76
2023/04/08 03:48:52;;;;;;;5.60;3.55;;;;;;;1.76;97.98;92384.66;5133403;27;20046;-76
2023/04/08 03:51:18;;;;;;;6.80;3.63;;;;;;;1.73;96.73;92377.34;5113842;27;20116;-76
2023/04/08 03:53:43;;;;;;;6.65;3.97;;;;;;;1.72;97.69;92391.28;5145845;27;20051;-76
2023/04/08 03:56:09;;;;;;;11.88;5.97;;;;;;;1.73;100.00;92379.94;5138147;27;20035;-76
2023/04/08 03:58:35;;;;;;;8.27;5.15;;;;;;;1.74;100.00;92385.91;5151250;27;20022;-76
2023/04/08 04:01:00;;;;;;;11.70;6.13;;;;;;;1.70;100.00;92388.16;5129996;27;20035;-76
2023/04/08 04:03:26;;;;;;;11.63;6.65;;;;;;;1.69;100.00;92383.22;5151878;27;20379;-76
2023/04/08 04:05:52;;;;;;;11.50;6.60;;;;;;;1.64;100.00;92381.34;5098827;27;20067;-76
2023/04/08 04:08:17;;;;;;;13.38;7.45;;;;;;;1.68;100.00;92387.63;5138375;27;20110;-76
2023/04/08 04:10:43;;;;;;;15.23;7.15;;;;;;;1.65;100.00;92385.50;5099775;27;20039;-76
2023/04/08 04:13:09;;;;;;;12.68;7.75;;;;;;;1.67;100.00;92380.91;5135549;27;20050;-76
2023/04/08 04:15:38;;;;;;;11.98;7.32;;;;;;;1.65;100.00;92380.34;5155502;27;20042;-76
2023/04/08 04:18:04;;;;;;;10.18;6.65;;;;;;;1.62;100.00;92379.03;5156572;27;20403;-76
2023/04/08 04:20:30;;;;;;;14.27;5.55;;;;;;;1.59;100.00;92376.88;5150156;27;20070;-76
2023/04/08 04:22:56;;;;;;;10.00;5.30;;;;;;;1.57;100.00;92378.13;5143411;27;20054;-76
2023/04/08 04:25:22;;;;;;;10.10;4.70;;;;;;;1.56;100.00;92385.09;5146180;27;20122;-76
2023/04/08 04:27:47;;;;;;;7.20;4.60;;;;;;;1.53;100.00;92385.59;5155285;27;20027;-76
2023/04/08 04:30:14;;;;;;;8.13;4.78;;;;;;;1.55;100.00;92377.59;5126342;27;20046;-76
2023/04/08 04:32:41;;;;;;;9.77;6.00;;;;;;;1.61;100.00;92374.09;5151165;27;20094;-76
2023/04/08 04:35:09;;;;;;;10.77;5.68;;;;;;;1.69;100.00;92373.72;5123627;27;20064;-76
2023/04/08 04:37:35;;;;;;;7.63;4.40;;;;;;;1.77;100.00;92386.22;5134356;27;20026;-77
2023/04/08 04:40:02;;;;;;;5.95;3.25;;;;;;;1.75;99.77;92374.56;5153886;27;20598;-76
2023/04/08 04:42:27;;;;;;;6.38;3.20;;;;;;;1.76;97.48;92384.66;5143595;27;20034;-76
2023/04/08 04:44:53;;;;;;;6.07;3.50;;;;;;;1.74;96.69;92391.06;5134381;27;20035;-76
2023/04/08 04:47:19;;;;;;;5.55;3.03;;;;;;;1.74;95.32;92381.53;5155196;27;20492;-76
2023/04/08 04:49:45;;;;;;;9.75;2.47;;;;;;;1.79;91.64;92386.75;5154928;27;20030;-76
2023/04/08 04:52:10;;;;;;;3.55;2.00;;;;;;;1.71;89.38;92371.66;5142022;27;20057;-76
2023/04/08 04:54:36;;;;;;;5.50;3.40;;;;;;;1.94;85.63;92380.28;5138393;27;20504;-77
2023/04/08 04:57:02;;;;;;;7.90;3.60;;;;;;;2.07;87.23;92387.69;5135284;27;20060;-77
2023/04/08 04:59:27;;;;;;;5.85;2.30;;;;;;;2.07;85.33;92379.94;5123950;27;20106;-76
2023/04/08 05:01:56;;;;;;;2.50;1.60;;;;;;;2.05;84.44;92382.00;5147859;27;20087;-77
2023/04/08 05:04:22;;;;;;;5.80;1.85;;;;;;;2.01;82.75;92380.91;5133225;27;20030;-77
2023/04/08 05:06:48;;;;;;;6.03;3.63;;;;;;;2.31;82.04;92384.94;5153001;27;20114;-77
2023/04/08 05:09:14;;;;;;;5.60;3.00;;;;;;;2.36;82.35;92385.00;5135679;27;20121;-77
2023/04/08 05:11:40;;;;;;;3.70;2.15;;;;;;;2.36;81.29;92380.59;5145872;27;20033;-77
2023/04/08 05:14:06;;;;;;;2.80;1.58;;;;;;;2.35;80.16;92391.19;5135199;27;20034;-77
2023/04/08 05:16:32;;;;;;;3.33;1.70;;;;;;;2.35;79.80;92386.03;5152840;27;20035;-76
2023/04/08 05:18:58;;;;;;;5.32;3.58;;;;;;;2.41;79.12;92388.44;5152196;27;20030;-76
2023/04/08 05:21:24;;;;;;;4.55;2.50;;;;;;;2.47;79.63;92389.28;5149600;27;20041;-76
2023/04/08 05:23:51;;;;;;;4.15;1.90;;;;;;;2.51;79.18;92390.38;5154361;27;20492;-76
2023/04/08 05:26:23;;;;;;;4.45;1.80;;;;;;;2.56;79.37;92390.44;5135817;27;20463;-76
2023/04/08 05:28:50;;;;;;;5.05;2.03;;;;;;;2.62;78.98;92392.06;5132866;27;20039;-79
2023/04/08 05:31:17;;;;;;;4.55;2.10;;;;;;;2.63;78.98;92385.09;5152202;27;20026;-78
2023/04/08 05:33:42;;;;;;;4.38;2.30;;;;;;;2.75;78.29;92392.72;5150654;27;20027;-78
2023/04/08 05:36:10;;;;;;;4.55;2.35;;;;;;;2.85;78.54;92395.44;5157694;27;20015;-78
2023/04/08 05:38:35;;;;;;;3.80;2.13;;;;;;;2.98;78.59;92384.72;5129182;27;20094;-79
2023/04/08 05:41:01;;;;;;;5.57;3.42;;;;;;;3.19;78.69;92396.06;5136649;27;20516;-77
2023/04/08 05:43:27;;;;;;;10.45;5.93;;;;;;;3.55;84.94;92399.03;5153647;27;20019;-79
2023/04/08 05:45:52;;;;;;;9.55;5.40;;;;;;;3.71;84.20;92394.75;5149659;27;20038;-79
2023/04/08 05:48:18;;;;;;;7.03;4.07;;;;;;;3.85;82.93;92398.53;5153394;27;20030;-77
2023/04/08 05:50:44;;;;;;;7.75;3.97;;;;;;;3.99;80.00;92395.53;5137372;27;20027;-78
2023/04/08 05:53:10;;;;;;;6.88;4.20;;;;;;;4.17;78.72;92402.91;5158859;27;20054;-78
2023/04/08 05:55:35;;;;;;;9.00;5.47;;;;;;;4.40;78.22;92399.19;5148939;27;20396;-77
2023/04/08 05:58:01;;;;;;;9.73;5.00;;;;;;;4.66;77.71;92405.31;5154650;27;20045;-78
2023/04/08 06:00:27;;;;;;;11.82;5.80;;;;;;;4.86;76.81;92409.78;5149598;27;20027;-79
2023/04/08 06:02:53;;;;;;;8.15;4.43;;;;;;;5.03;75.87;92414.03;5134686;27;20039;-81
2023/04/08 06:05:19;;;;;;;9.45;5.07;;;;;;;5.18;74.89;92398.53;5132372;27;20030;-80
2023/04/08 06:07:45;;;;;;;12.73;8.13;;;;;;;5.58;79.54;92408.22;5137246;27;20038;-81
2023/04/08 06:10:10;;;;;;;14.88;9.20;;;;;;;5.51;84.21;92401.72;5152951;27;20264;-80
2023/04/08 06:12:39;;;;;;;15.88;9.52;;;;;;;5.98;83.86;92409.34;5151417;27;20175;-77
2023/04/08 06:15:06;;;;;;;16.45;9.90;;;;;;;6.75;81.56;92416.31;5130037;27;20045;-79
2023/04/08 06:17:37;;;;;;;14.40;8.32;;;;;;;8.34;74.46;92417.03;5135200;27;20518;-79
2023/04/08 06:20:04;;;;;;;13.00;7.82;;;;;;;9.76;65.57;92413.19;5138152;27;20050;-81
2023/04/08 06:22:30;;;;;;;12.65;7.72;;;;;;;10.91;60.32;92406.72;5158595;27;20022;-80
2023/04/08 06:24:56;;;;;;;10.63;7.25;;;;;;;11.99;55.32;92407.25;5136687;27;20155;-80
2023/04/08 06:27:22;;;;;;;11.50;7.20;;;;;;;12.76;52.20;92411.50;5140773;27;20042;-80
2023/04/08 06:29:47;;;;;;;11.43;7.75;;;;;;;13.62;49.99;92407.69;5158053;27;20698;-81
2023/04/08 06:32:13;;;;;;;10.75;6.35;;;;;;;14.67;47.17;92411.16;5102854;27;20039;-81
2023/04/08 06:34:46;;;;;;;10.82;8.52;;;;;;;14.12;50.08;92406.53;5155847;27;20473;-82
2023/04/08 06:37:37;;;;;;;12.48;9.20;;;;;;;13.71;52.45;92411.13;5160169;27;20079;-81
2023/04/08 06:40:05;;;;;;;18.40;10.23;;;;;;;13.51;51.98;92412.47;5138167;27;20037;-79
2023/04/08 06:42:30;;;;;;;13.27;9.55;;;;;;;12.65;53.24;92413.63;5136636;27;20551;-79
2023/04/08 06:45:24;;;;;;;13.18;8.95;;;;;;;11.82;55.95;92399.97;5151396;27;20085;-78
2023/04/08 06:47:55;;;;;;;13.38;8.70;;;;;;;11.09;57.63;92409.56;5154044;27;20048;-79
2023/04/08 06:50:22;;;;;;;12.82;8.93;;;;;;;11.17;59.20;92406.28;5153640;27;20035;-81
2023/04/08 06:53:05;;;;;;;11.63;8.90;;;;;;;10.86;60.36;92409.44;5153676;27;21079;-81
2023/04/08 06:55:32;;;;;;;11.23;8.38;;;;;;;11.43;59.48;92401.31;5160712;27;20106;-81
2023/04/08 06:58:14;;;;;;;7.55;5.20;;;;;;;11.86;52.17;92404.34;5141669;27;20046;-79
2023/04/08 07:01:15;;;;;;;11.30;6.65;;;;;;;12.83;52.66;92405.81;5159581;27;20033;-80
2023/04/08 07:03:41;;;;;;;12.90;8.13;;;;;;;12.85;53.39;92404.44;5157421;27;20027;-80
2023/04/08 07:06:07;;;;;;;12.65;9.02;;;;;;;12.90;54.22;92395.66;5137362;27;20507;-80
2023/04/08 07:12:27;;;;;;;15.48;7.93;;;;;;;13.87;48.39;92408.81;5160195;27;20038;-81
2023/04/08 07:14:55;;;;;;;11.48;7.75;;;;;;;13.47;50.64;92408.13;5160127;27;20031;-81
2023/04/08 07:21:15;;;;;;;12.43;7.20;;;;;;;11.35;56.70;92399.38;5159921;27;20033;-80
2023/04/08 07:23:58;;;;;;;14.02;7.78;;;;;;;11.36;59.15;92404.31;5159830;27;20034;-81
2023/04/08 07:30:06;;;;;;;11.32;7.90;;;;;;;10.85;60.68;92413.13;5159720;27;20046;-80
2023/04/08 07:32:45;;;;;;;19.27;8.32;;;;;;;11.11;59.30;92402.19;5159634;27;20449;-80
2023/04/08 07:35:49;;;;;;;12.88;7.45;;;;;;;12.13;57.42;92412.47;5160634;27;20428;-80
2023/04/08 07:38:33;;;;;;;9.02;6.25;;;;;;;11.33;57.47;92406.78;5160342;27;20167;-81
2023/04/08 07:41:07;;;;;;;8.65;5.05;;;;;;;10.69;53.07;92409.22;5159350;27;20027;-81
2023/04/08 07:43:49;;;;;;;13.85;7.30;;;;;;;10.36;60.20;92406.63;5159893;27;20104;-81
2023/04/08 07:46:26;;;;;;;10.23;6.60;;;;;;;10.20;60.14;92412.06;5163403;27;20034;-80
2023/04/08 07:49:13;;;;;;;9.38;5.82;;;;;;;10.36;60.19;92412.63;5163155;27;20583;-80
2023/04/08 07:51:43;;;;;;;9.65;6.28;;;;;;;10.76;57.90;92407.81;5145184;27;20396;-79
2023/04/08 07:54:15;;;;;;;10.48;6.00;;;;;;;11.21;55.24;92407.22;5141875;27;20051;-80
2023/04/08 07:57:32;;;;;;;10.15;6.28;;;;;;;11.51;56.23;92413.75;5143383;27;20500;-81
2023/04/08 07:59:57;;;;;;;10.95;6.50;;;;;;;10.81;58.34;92412.94;5141091;27;20043;-81
2023/04/08 08:02:28;;;;;;;7.72;4.35;;;;;;;10.65;58.79;92416.09;5133915;27;20028;-79
2023/04/08 08:05:06;;;;;;;10.90;6.70;;;;;;;10.51;59.96;92414.22;5122492;28;20027;-80
2023/04/08 08:07:34;;;;;;;10.35;5.90;;;;;;;10.44;58.67;92411.19;5121228;28;20040;-80
2023/04/08 08:10:29;;;;;;;6.25;3.03;;;;;;;10.52;56.38;92407.94;5120655;28;20035;-80
2023/04/08 08:12:57;;;;;;;9.02;4.40;;;;;;;10.28;54.43;92402.00;5120212;28;20401;-80
2023/04/08 08:15:28;;;;;;;6.82;4.22;;;;;;;10.32;53.20;92418.72;5140639;27;20023;-79
2023/04/08 08:17:55;;;;;;;9.13;6.03;;;;;;;10.32;57.07;92414.25;5142610;27;20084;-80
2023/04/08 08:20:27;;;;;;;10.65;5.88;;;;;;;10.40;57.25;92411.00;5124030;27;20041;-80
2023/04/08 08:23:22;;;;;;;8.30;5.03;;;;;;;10.41;57.49;92402.09;5142293;27;20082;-80
2023/04/08 08:25:58;;;;;;;8.00;3.25;;;;;;;10.92;54.44;92415.38;5141253;27;20031;-81
2023/04/08 08:28:34;;;;;;;9.30;5.65;;;;;;;11.41;53.03;92408.69;5142396;27;20484;-79
2023/04/08 08:31:02;;;;;;;8.27;4.15;;;;;;;11.54;54.94;92407.13;5142652;27;20062;-79
2023/04/08 08:33:46;;;;;;;6.63;4.30;;;;;;;11.32;54.29;92419.06;5140969;27;20033;-79
2023/04/08 08:36:37;;;;;;;7.82;4.68;;;;;;;10.96;53.79;92421.59;5140789;27;20051;-80
2023/04/08 08:39:12;;;;;;;5.15;2.85;;;;;;;10.92;53.82;92421.41;5141834;27;20114;-80
2023/04/08 08:41:48;;;;;;;8.38;4.22;;;;;;;11.04;55.38;92419.06;5141718;27;20477;-79
2023/04/08 08:44:16;;;;;;;8.10;5.28;;;;;;;11.18;55.26;92423.53;5140451;27;20446;-80
2023/04/08 08:46:50;;;;;;;3.70;2.47;;;;;;;11.53;51.82;92416.06;5140125;27;20031;-79
2023/04/08 08:49:16;;;;;;;9.57;5.00;;;;;;;11.50;55.04;92425.28;5140755;27;20035;-80
2023/04/08 08:51:53;;;;;;;5.32;3.28;;;;;;;11.60;52.40;92422.47;5139413;27;20035;-80
2023/04/08 08:54:19;;;;;;;6.60;3.55;;;;;;;11.20;53.13;92419.56;5138496;27;20454;-80
2023/04/08 08:56:45;;;;;;;9.23;4.20;;;;;;;11.31;55.29;92422.78;5138814;27;20035;-80
2023/04/08 08:59:11;;;;;;;7.15;4.07;;;;;;;11.38;54.44;92425.78;5139340;27;20118;-81
2023/04/08 09:01:58;;;;;;;5.18;2.80;;;;;;;11.00;49.51;92425.19;5139092;27;20111;-80
2023/04/08 09:05:07;;;;;;;3.22;2.05;;;;;;;11.25;48.84;92429.16;5122288;27;20035;-79
2023/04/08 09:07:57;;;;;;;6.43;3.67;;;;;;;11.59;53.74;92430.63;5140286;27;20037;-80
2023/04/08 09:10:39;;;;;;;4.53;3.08;;;;;;;11.78;48.56;92426.03;5140608;27;20062;-79
2023/04/08 09:13:07;;;;;;;4.63;3.03;;;;;;;11.92;48.41;92435.75;5140815;27;20504;-79
2023/04/08 09:15:33;;;;;;;3.58;2.05;;;;;;;12.04;45.57;92423.66;5139423;27;20385;-80
2023/04/08 09:17:58;;;;;;;5.95;3.65;;;;;;;12.01;50.10;92423.50;5122037;27;20031;-80
2023/04/08 09:20:24;;;;;;;6.75;3.95;;;;;;;11.94;51.66;92420.50;5140178;27;20064;-81
2023/04/08 09:23:16;;;;;;;4.88;3.00;;;;;;;12.21;49.65;92422.25;5141014;27;20050;-81
2023/04/08 09:25:44;;;;;;;4.00;2.60;;;;;;;12.17;47.77;92423.91;5143384;27;20031;-78
2023/04/08 09:29:05;;;;;;;5.60;3.40;;;;;;;12.26;47.03;92414.25;5123118;27;20028;-81
2023/04/08 09:31:56;;;;;;;5.00;2.50;;;;;;;12.37;47.07;92414.81;5077049;28;20043;-81
2023/04/08 09:34:31;;;;;;;3.33;1.77;;;;;;;12.63;40.17;92414.97;5117855;28;20043;-80
2023/04/08 09:36:58;;;;;;;3.75;2.33;;;;;;;12.66;46.61;92417.00;5119568;28;20035;-81
2023/04/08 09:40:15;;;;;;;5.07;2.90;;;;;;;12.35;46.67;92417.72;5119154;28;20027;-81
2023/04/08 09:42:55;;;;;;;4.53;2.42;;;;;;;12.39;45.76;92402.16;5119102;28;20405;-80
2023/04/08 09:45:24;;;;;;;5.65;2.35;;;;;;;12.22;42.58;92410.69;5120464;27;20058;-80
2023/04/08 09:48:09;;;;;;;6.82;2.10;;;;;;;12.54;44.78;92412.31;5139760;27;20100;-80
2023/04/08 09:51:11;;;;;;;5.53;2.13;;;;;;;12.58;43.29;92409.84;5139913;27;20058;-79
2023/04/08 09:53:41;;;;;;;3.67;1.90;;;;;;;12.95;41.59;92418.38;5138279;27;20055;-80
2023/04/08 09:56:38;;;;;;;2.92;1.65;;;;;;;12.94;41.86;92415.00;5139832;27;20043;-80
2023/04/08 09:59:16;;;;;;;4.72;1.92;;;;;;;12.79;40.04;92410.91;5139145;27;20027;-79
2023/04/08 10:02:10;;;;;;;4.03;1.58;;;;;;;12.98;40.76;92413.31;5140186;27;20560;-80
2023/04/08 10:04:41;;;;;;;2.97;1.65;;;;;;;12.84;41.20;92413.41;5119230;28;20081;-79
2023/04/08 10:07:24;;;;;;;3.33;1.80;;;;;;;13.01;40.30;92412.69;5100981;28;20051;-81
2023/04/08 10:10:38;;;;;;;2.42;1.40;;;;;;;13.08;38.02;92413.06;5127472;27;20043;-81
2023/04/08 10:13:08;;;;;;;2.88;1.60;;;;;;;13.26;39.88;92407.84;5139228;27;20027;-81
2023/04/08 10:16:23;;;;;;;2.95;1.77;;;;;;;13.61;39.50;92403.50;5138999;27;20120;-81
2023/04/08 10:18:57;;;;;;;2.75;1.50;;;;;;;13.70;37.63;92404.28;5138343;27;20045;-80
2023/04/08 10:21:46;;;;;;;3.33;1.63;;;;;;;13.51;37.59;92407.22;5139797;27;20042;-80
2023/04/08 10:24:24;;;;;;;2.42;1.48;;;;;;;13.64;36.31;92399.50;5139751;27;20032;-81
2023/04/08 10:27:38;;;;;;;1.83;1.25;;;;;;;13.75;35.51;92408.63;5137697;27;20067;-81
2023/04/08 10:30:38;;;;;;;3.75;1.60;;;;;;;14.02;37.79;92393.66;5117669;28;20039;-80
2023/04/08 10:33:24;;;;;;;1.73;1.30;;;;;;;14.18;34.85;92388.72;5136422;27;20047;-80
2023/04/08 10:36:14;;;;;;;2.60;1.52;;;;;;;14.19;34.26;92393.66;5131864;27;20073;-81
2023/04/08 10:38:45;;;;;;;1.38;1.10;;;;;;;14.50;34.86;92395.34;5116889;28;20035;-81
2023/04/08 10:41:24;;;;;;;2.75;1.67;;;;;;;14.59;34.86;92388.25;5119033;28;20067;-81
2023/04/08 10:43:51;;;;;;;2.38;1.27;;;;;;;14.95;33.63;92384.41;5118543;28;20035;-79
2023/04/08 10:46:36;;;;;;;2.40;1.30;;;;;;;15.12;34.20;92383.59;5117368;28;20032;-80
2023/04/08 10:49:12;;;;;;;1.98;1.27;;;;;;;15.05;33.57;92378.06;5118681;28;20043;-80
2023/04/08 10:51:45;;;;;;;2.00;1.20;;;;;;;14.56;32.69;92388.84;5117888;28;20070;-80
2023/04/08 10:54:13;;;;;;;1.92;1.30;;;;;;;14.56;32.23;92383.59;5132382;27;20054;-81
2023/04/08 10:56:51;;;;;;;1.55;1.05;;;;;;;14.60;31.76;92379.25;5159789;27;20030;-80
2023/04/08 10:59:38;;;;;;;1.75;1.20;;;;;;;14.89;31.75;92381.19;5159799;27;20031;-79
2023/04/08 11:02:12;;;;;;;1.33;1.00;;;;;;;14.66;33.30;92385.91;5159903;27;20404;-81
2023/04/08 11:04:47;;;;;;;1.45;1.10;;;;;;;14.88;32.18;92369.13;5159810;27;20037;-82
2023/04/08 11:07:20;;;;;;;2.80;1.15;;;;;;;14.78;30.51;92375.47;5160169;27;20035;-81
2023/04/08 11:10:21;;;;;;;1.77;1.00;;;;;;;15.25;31.69;92377.34;5160059;27;20035;-81
2023/04/08 11:13:07;;;;;;;1.67;1.00;;;;;;;15.85;30.87;92377.34;5159058;27;20018;-81
2023/04/08 11:15:58;;;;;;;1.98;1.30;;;;;;;15.64;30.09;92369.38;5142013;27;20090;-80
2023/04/08 11:18:27;;;;;;;4.88;1.25;;;;;;;15.77;31.75;92371.03;5161065;27;20037;-81
2023/04/08 11:20:53;;;;;;;3.83;1.40;;;;;;;15.78;28.91;92375.22;5164191;27;20031;-80
2023/04/08 11:23:36;;;;;;;1.58;0.93;;;;;;;16.01;27.76;92365.16;5145811;27;20034;-80
2023/04/08 11:26:38;;;;;;;2.15;1.20;;;;;;;15.38;30.61;92370.31;5163372;27;20107;-79
2023/04/08 11:29:56;;;;;;;3.13;1.10;;;;;;;15.12;31.66;92368.53;5163886;27;20038;-79
2023/04/08 11:32:29;;;;;;;1.95;1.30;;;;;;;14.84;32.31;92373.47;5163465;27;20081;-80
2023/04/08 11:35:15;;;;;;;1.65;1.17;;;;;;;14.53;31.58;92373.66;5163174;27;20035;-80
2023/04/08 11:37:41;;;;;;;1.98;1.20;;;;;;;14.12;31.98;92370.44;5163121;27;20042;-78
2023/04/08 11:40:29;;;;;;;1.67;1.23;;;;;;;13.99;32.99;92367.97;5162914;27;20019;-79
2023/04/08 11:43:10;;;;;;;2.03;1.20;;;;;;;14.15;32.48;92367.19;5162953;27;20058;-79
2023/04/08 11:45:52;;;;;;;3.55;1.25;;;;;;;14.07;32.89;92367.97;5162574;27;20038;-80
2023/04/08 11:48:23;;;;;;;5.40;1.48;;;;;;;14.24;34.17;92361.16;5163315;27;20057;-80
2023/04/08 11:51:17;;;;;;;2.42;1.40;;;;;;;14.58;33.50;92362.97;5162999;27;20062;-80
2023/04/08 11:53:46;;;;;;;1.55;1.13;;;;;;;14.52;31.56;92365.00;5077043;28;20076;-80
2023/04/08 11:56:22;;;;;;;1.40;1.08;;;;;;;14.48;33.18;92360.66;5119993;28;20505;-80
2023/04/08 11:58:54;;;;;;;1.85;1.20;;;;;;;14.49;33.33;92364.81;5121606;28;20047;-80
2023/04/08 12:01:30;;;;;;;2.53;1.40;;;;;;;14.62;33.37;92358.63;5121868;28;20043;-80
2023/04/08 12:03:59;;;;;;;2.10;1.23;;;;;;;14.93;31.91;92361.03;5122196;28;20031;-81
2023/04/08 12:06:26;;;;;;;1.02;0.93;;;;;;;15.06;32.43;92355.84;5121157;28;20030;-80